KHTL

Roscommon County - Blodgett Memorial Airport

Houghton Lake, Michigan, USA
METAR KHTL 170353Z AUTO 32005KT 10SM BKN037 OVC050 05/02 A2992 RMK AO2 PK WND 34028/0256 WSHFT 0246 RAB29E45 SLP139 P0000 T00500017 $
Observed Flight Rules
Oct-17 @ 03:53 UTC (2 hours ago) Visual Flight Rules
Wind Visibility Clouds
320° at 5 knots 10 miles
  • Broken at 3,700' AGL
  • Overcast at 5,000' AGL
Temperatures Readings Precipitation
Current 5°C / 41°F
Dewpoint 2°C / 36°F
Humidity 81%
Altimeter 29.92" Hg
Pressure 1013.9 hPa
Elevation 351
Current Rain 0.005
METAR KHTL 170353Z AUTO 32005KT 10SM BKN037 OVC050 05/02 A2992 RMK AO2 PK WND 34028/0256 WSHFT 0246 RAB29E45 SLP139 P0000 T00500017 $
Observed Flight Rules
Oct-17 @ 03:53 UTC
(2 hours ago)
VFR
Wind Visibility
320° at 5 knots 10 miles
Clouds
  • Broken at 3,700' AGL
  • Overcast at 5,000' AGL
Temperature Dewpoint
5°C / 41°F 2°C / 36°F
Humidity Altimeter Pressure
81% 29.92" Hg 1013.9 hPa
Current Rain
0.005